createdAt,value
2019-06-07T00:02:16.358Z,1.50
2019-06-07T00:05:07.687Z,1.00
2019-06-07T00:07:42.267Z,1.67
2019-06-07T00:10:35.256Z,1.40
2019-06-07T00:12:52.799Z,1.20
2019-06-07T00:15:29.348Z,1.42
2019-06-07T00:18:03.827Z,1.20
2019-06-07T00:20:41.966Z,1.37
2019-06-07T00:23:20.737Z,1.95
2019-06-07T00:25:54.368Z,1.57
2019-06-07T00:28:31.148Z,2.08
2019-06-07T00:31:05.481Z,1.40
2019-06-07T00:33:39.874Z,1.30
2019-06-07T00:36:16.235Z,1.55
2019-06-07T00:38:50.050Z,1.70
2019-06-07T00:41:24.330Z,1.35
2019-06-07T00:44:08.405Z,1.80
2019-06-07T00:46:42.017Z,1.70
2019-06-07T00:49:32.333Z,1.52
2019-06-07T00:51:53.842Z,1.65
2019-06-07T00:54:28.429Z,1.60
2019-06-07T00:57:02.613Z,1.62
2019-06-07T00:59:43.646Z,1.60
2019-06-07T01:02:19.234Z,1.75
2019-06-07T01:04:55.062Z,2.10
2019-06-07T01:07:29.365Z,2.30
2019-06-07T01:10:06.105Z,2.20
2019-06-07T01:12:40.317Z,1.72
2019-06-07T01:15:29.689Z,1.75
2019-06-07T01:20:40.017Z,1.92
2019-06-07T01:26:10.033Z,1.62
2019-06-07T01:28:44.218Z,1.80
2019-06-07T01:31:24.404Z,1.60
2019-06-07T01:34:06.807Z,1.67
2019-06-07T01:36:46.685Z,1.75
2019-06-07T01:39:24.714Z,1.80
2019-06-07T01:41:58.639Z,1.90
2019-06-07T01:44:32.969Z,1.90
2019-06-07T01:47:07.543Z,2.05
2019-06-07T01:49:42.142Z,1.75
2019-06-07T01:52:17.026Z,2.10
2019-06-07T01:54:57.824Z,1.80
2019-06-07T01:57:38.435Z,2.47
2019-06-07T02:00:04.857Z,1.55
2019-06-07T02:02:39.466Z,2.50
2019-06-07T02:05:14.121Z,1.75
2019-06-07T02:07:48.364Z,1.80
2019-06-07T02:10:27.465Z,2.00
2019-06-07T02:12:58.689Z,2.02
2019-06-07T02:15:36.785Z,2.00
2019-06-07T02:18:09.018Z,2.15
2019-06-07T02:20:43.301Z,1.95
2019-06-07T02:23:17.682Z,1.92
2019-06-07T02:25:51.976Z,1.92
2019-06-07T02:28:36.187Z,1.90
2019-06-07T02:31:02.418Z,1.70
2019-06-07T02:33:40.118Z,1.85
2019-06-07T02:36:13.655Z,1.95
2019-06-07T02:38:48.026Z,2.00
2019-06-07T02:41:25.790Z,1.40
2019-06-07T02:43:58.378Z,1.90
2019-06-07T02:46:45.425Z,1.90
2019-06-07T02:49:08.685Z,1.90
2019-06-07T02:51:43.850Z,1.82
2019-06-07T02:54:18.118Z,1.87
2019-06-07T02:56:58.541Z,2.00
2019-06-07T03:00:01.351Z,2.37
2019-06-07T03:02:04.568Z,2.22
2019-06-07T03:04:44.055Z,1.90
2019-06-07T03:07:17.500Z,1.82
2019-06-07T03:09:52.207Z,2.10
2019-06-07T03:12:30.856Z,1.67
2019-06-07T03:15:05.085Z,1.70
2019-06-07T03:17:49.935Z,1.37
2019-06-07T03:20:27.405Z,1.50
2019-06-07T03:25:42.445Z,1.50
2019-06-07T03:28:17.081Z,1.67
2019-06-07T03:31:01.658Z,1.60
2019-06-07T03:33:29.230Z,1.80
2019-06-07T03:36:22.907Z,1.80
2019-06-07T03:38:39.959Z,1.85
2019-06-07T03:41:14.457Z,1.67
2019-06-07T03:43:48.741Z,2.20
2019-06-07T03:46:22.910Z,1.85
2019-06-07T03:48:57.257Z,1.52
2019-06-07T03:51:32.905Z,1.85
2019-06-07T03:54:07.497Z,1.92
2019-06-07T03:56:41.848Z,2.02
2019-06-07T03:59:16.192Z,1.90
2019-06-07T04:01:50.541Z,2.12
2019-06-07T04:04:24.748Z,1.98
2019-06-07T04:06:58.985Z,2.08
2019-06-07T04:09:37.466Z,2.08
2019-06-07T04:12:09.213Z,1.85
2019-06-07T04:14:43.505Z,2.08
2019-06-07T04:17:17.745Z,2.35
2019-06-07T04:19:52.112Z,1.87
2019-06-07T04:22:26.361Z,2.00
2019-06-07T04:25:02.912Z,1.90
2019-06-07T04:27:39.310Z,2.10
2019-06-07T04:30:13.469Z,2.25
2019-06-07T04:32:47.793Z,2.30
2019-06-07T04:35:22.565Z,2.00
2019-06-07T04:37:56.988Z,1.87
2019-06-07T04:40:33.813Z,1.80
2019-06-07T04:43:08.225Z,2.22
2019-06-07T04:45:50.901Z,1.90
2019-06-07T04:48:21.534Z,2.40
2019-06-07T04:50:56.684Z,2.25
2019-06-07T04:53:34.589Z,2.60
2019-06-07T04:56:06.866Z,2.77
2019-06-07T04:58:41.545Z,2.45
2019-06-07T05:01:26.936Z,2.30
2019-06-07T05:03:51.825Z,2.65
2019-06-07T05:06:26.012Z,2.90
2019-06-07T05:09:00.282Z,2.70
2019-06-07T05:11:36.496Z,2.35
2019-06-07T05:14:10.631Z,2.30
2019-06-07T05:16:44.809Z,2.20
2019-06-07T05:19:19.136Z,2.60
2019-06-07T05:22:04.158Z,2.20
2019-06-07T05:24:30.744Z,2.37
2019-06-07T05:27:05.926Z,2.95
2019-06-07T05:29:41.649Z,2.87
2019-06-07T05:32:16.336Z,2.27
2019-06-07T05:34:50.574Z,2.40
2019-06-07T05:37:24.840Z,1.77
2019-06-07T05:39:59.192Z,1.72
2019-06-07T05:45:38.489Z,1.92
2019-06-07T05:48:11.608Z,1.70
2019-06-07T05:50:55.966Z,1.75
2019-06-07T05:53:21.958Z,1.52
2019-06-07T05:55:56.240Z,1.30
2019-06-07T05:58:30.512Z,1.32
2019-06-07T06:01:41.729Z,1.62
2019-06-07T06:03:43.098Z,1.72
2019-06-07T06:06:16.774Z,1.60
2019-06-07T06:08:51.110Z,1.50
2019-06-07T06:11:43.409Z,1.55
2019-06-07T06:14:07.378Z,1.85
2019-06-07T06:16:39.545Z,1.32
2019-06-07T06:19:13.568Z,1.40
2019-06-07T06:21:48.700Z,1.37
2019-06-07T06:24:23.093Z,1.40
2019-06-07T06:27:15.293Z,1.62
2019-06-07T06:29:33.528Z,1.55
2019-06-07T06:32:41.259Z,1.90
2019-06-07T06:34:53.677Z,1.15
2019-06-07T06:37:25.937Z,1.60
2019-06-07T06:40:00.241Z,1.57
2019-06-07T06:42:34.556Z,1.70
2019-06-07T06:45:10.128Z,1.72
2019-06-07T06:47:48.191Z,1.75
2019-06-07T06:50:20.688Z,1.35
2019-06-07T06:52:55.123Z,1.40
2019-06-07T06:55:29.440Z,1.80
2019-06-07T06:58:03.724Z,1.75
2019-06-07T07:00:58.853Z,1.87
2019-06-07T07:03:57.619Z,1.95
2019-06-07T07:06:25.308Z,1.92
2019-06-07T07:08:44.260Z,1.85
2019-06-07T07:11:23.187Z,2.00
2019-06-07T07:13:57.037Z,1.87
2019-06-07T07:16:36.472Z,2.00
2019-06-07T07:19:10.752Z,2.05
2019-06-07T07:21:45.870Z,1.70
2019-06-07T07:24:22.374Z,1.42
2019-06-07T07:26:58.429Z,1.90
2019-06-07T07:29:34.844Z,1.75
2019-06-07T07:32:09.176Z,1.95
2019-06-07T07:34:46.003Z,1.75
2019-06-07T07:37:19.513Z,1.80
2019-06-07T07:40:01.382Z,1.45
2019-06-07T07:42:30.087Z,1.75
2019-06-07T07:45:07.576Z,1.70
2019-06-07T07:47:58.288Z,1.52
2019-06-07T07:50:17.823Z,1.50
2019-06-07T07:52:56.096Z,1.90
2019-06-07T07:55:28.089Z,1.87
2019-06-07T07:58:02.481Z,1.75
2019-06-07T08:00:52.493Z,1.80
2019-06-07T08:03:13.661Z,2.17
2019-06-07T08:05:49.125Z,2.15
2019-06-07T08:08:23.936Z,2.10
2019-06-07T08:11:01.342Z,1.87
2019-06-07T08:13:34.191Z,1.85
2019-06-07T08:16:14.799Z,1.87
2019-06-07T08:18:44.483Z,1.80
2019-06-07T08:21:25.334Z,1.57
2019-06-07T08:24:03.443Z,1.85
2019-06-07T08:26:34.063Z,1.50
2019-06-07T08:29:08.356Z,1.75
2019-06-07T08:31:42.827Z,1.75
2019-06-07T08:34:17.059Z,1.77
2019-06-07T08:36:52.271Z,1.60
2019-06-07T08:39:29.339Z,1.80
2019-06-07T08:42:15.357Z,1.80
2019-06-07T08:44:40.536Z,1.32
2019-06-07T08:47:20.483Z,1.45
2019-06-07T08:49:54.925Z,1.40
2019-06-07T08:52:26.784Z,1.82
2019-06-07T08:55:04.509Z,1.50
2019-06-07T08:57:54.510Z,1.62
2019-06-07T09:00:47.246Z,1.20
2019-06-07T09:03:07.189Z,1.52
2019-06-07T09:05:40.055Z,1.40
2019-06-07T09:08:29.448Z,1.72
2019-06-07T09:10:50.407Z,1.87
2019-06-07T09:13:24.714Z,1.42
2019-06-07T09:16:04.903Z,1.62
2019-06-07T09:18:42.970Z,1.62
2019-06-07T09:21:10.878Z,1.67
2019-06-07T09:23:45.088Z,1.72
2019-06-07T09:26:19.611Z,1.67
2019-06-07T09:28:57.648Z,1.42
2019-06-07T09:31:51.088Z,1.85
2019-06-07T09:34:13.788Z,1.65
2019-06-07T09:36:43.391Z,1.60
2019-06-07T09:39:17.730Z,1.72
2019-06-07T09:41:52.071Z,1.80
2019-06-07T09:44:26.856Z,1.60
2019-06-07T09:47:20.669Z,1.80
2019-06-07T09:49:37.083Z,1.75
2019-06-07T09:52:13.327Z,1.77
2019-06-07T09:55:12.080Z,1.90
2019-06-07T09:57:23.699Z,1.70
2019-06-07T09:59:59.433Z,1.80
2019-06-07T10:02:34.479Z,2.05
2019-06-07T10:05:14.118Z,2.05
2019-06-07T10:07:59.978Z,1.70
2019-06-07T10:12:56.599Z,1.80
2019-06-07T10:15:30.957Z,1.50
2019-06-07T10:18:05.284Z,1.75
2019-06-07T10:20:40.282Z,2.00
2019-06-07T10:23:14.557Z,2.10
2019-06-07T10:25:48.811Z,2.00
2019-06-07T10:28:23.154Z,1.62
2019-06-07T10:30:57.511Z,1.57
2019-06-07T10:33:31.739Z,1.77
2019-06-07T10:36:06.644Z,2.02
2019-06-07T10:38:40.967Z,2.05
2019-06-07T10:41:23.898Z,1.92
2019-06-07T10:43:58.235Z,1.80
2019-06-07T10:46:32.563Z,1.80
2019-06-07T10:49:07.979Z,1.90
2019-06-07T10:51:42.415Z,1.85
2019-06-07T10:54:26.706Z,1.80
2019-06-07T10:56:52.771Z,2.00
2019-06-07T10:59:27.915Z,1.92
2019-06-07T11:02:03.458Z,2.02
2019-06-07T11:04:38.021Z,1.72
2019-06-07T11:07:12.151Z,2.10
2019-06-07T11:09:46.431Z,2.15
2019-06-07T11:12:20.999Z,2.20
2019-06-07T11:14:55.336Z,2.00
2019-06-07T11:17:29.510Z,2.25
2019-06-07T11:20:09.901Z,1.85
2019-06-07T11:22:44.539Z,1.82
2019-06-07T11:25:19.005Z,1.70
2019-06-07T11:27:53.327Z,1.98
2019-06-07T11:30:27.622Z,2.10
2019-06-07T11:33:01.871Z,1.70
2019-06-07T11:35:36.493Z,2.10
2019-06-07T11:38:10.682Z,1.92
2019-06-07T11:40:45.009Z,1.57
2019-06-07T11:43:19.287Z,1.47
2019-06-07T11:45:53.650Z,1.67
2019-06-07T11:48:27.912Z,2.08
2019-06-07T11:51:02.230Z,2.40
2019-06-07T11:53:36.568Z,2.10
2019-06-07T11:56:11.940Z,1.90
2019-06-07T11:58:46.302Z,1.87
2019-06-07T12:01:20.624Z,1.60
2019-06-07T12:03:58.227Z,1.65
2019-06-07T12:06:32.847Z,1.70
2019-06-07T12:09:08.628Z,1.62
2019-06-07T12:11:43.349Z,1.72
2019-06-07T12:14:19.208Z,2.08
2019-06-07T12:16:53.742Z,1.75
2019-06-07T12:19:28.011Z,2.08
2019-06-07T12:22:02.273Z,1.80
2019-06-07T12:24:36.475Z,2.20
2019-06-07T12:27:10.646Z,2.30
2019-06-07T12:29:44.863Z,1.87
2019-06-07T12:32:19.596Z,1.42
2019-06-07T12:34:53.950Z,1.80
2019-06-07T12:37:42.507Z,1.80
2019-06-07T12:40:06.481Z,2.47
2019-06-07T12:42:40.711Z,1.77
2019-06-07T12:45:36.629Z,2.20
2019-06-07T12:47:50.974Z,2.00
2019-06-07T12:50:41.620Z,2.33
2019-06-07T12:53:01.163Z,1.90
2019-06-07T12:55:35.415Z,2.02
2019-06-07T12:58:09.718Z,2.00
2019-06-07T13:00:44.005Z,2.30
2019-06-07T13:03:18.465Z,2.05
2019-06-07T13:05:52.807Z,2.52
2019-06-07T13:08:28.195Z,2.15
2019-06-07T13:11:14.896Z,2.25
2019-06-07T13:13:38.594Z,2.40
2019-06-07T13:16:13.045Z,2.52
2019-06-07T13:18:47.383Z,2.10
2019-06-07T13:21:22.361Z,2.30
2019-06-07T13:23:56.730Z,2.62
2019-06-07T13:26:31.006Z,2.83
2019-06-07T13:29:05.442Z,2.45
2019-06-07T13:31:39.746Z,2.87
2019-06-07T13:34:16.005Z,2.72
2019-06-07T13:36:50.411Z,3.02
2019-06-07T13:39:27.773Z,2.80
2019-06-07T13:42:00.708Z,3.10
2019-06-07T13:44:35.047Z,2.70
2019-06-07T13:47:09.414Z,2.87
2019-06-07T13:49:43.660Z,3.10
2019-06-07T13:52:18.044Z,3.40
2019-06-07T13:54:52.359Z,2.95
2019-06-07T13:57:29.610Z,3.35
2019-06-07T14:00:10.903Z,3.52
2019-06-07T14:02:45.663Z,3.10
2019-06-07T14:05:20.950Z,3.22
2019-06-07T14:07:55.474Z,3.60
2019-06-07T14:10:33.263Z,3.45
2019-06-07T14:13:08.790Z,3.00
2019-06-07T14:15:43.084Z,3.42
2019-06-07T14:18:17.338Z,3.47
2019-06-07T14:23:44.222Z,3.77
2019-06-07T14:26:00.994Z,3.25
2019-06-07T14:28:35.371Z,3.50
2019-06-07T14:31:12.426Z,2.67
2019-06-07T14:33:46.703Z,2.98
2019-06-07T14:36:20.944Z,3.10
2019-06-07T14:38:55.171Z,3.00
2019-06-07T14:41:29.642Z,2.85
2019-06-07T14:44:03.954Z,2.80
2019-06-07T14:46:45.430Z,2.70
2019-06-07T14:49:19.750Z,2.50
2019-06-07T14:51:54.023Z,2.70
2019-06-07T14:54:33.506Z,2.52
2019-06-07T14:57:04.287Z,2.62
2019-06-07T14:59:39.454Z,1.27
2019-06-07T15:02:13.828Z,1.75
2019-06-07T15:04:48.338Z,2.35
2019-06-07T15:07:22.638Z,2.27
2019-06-07T15:09:56.822Z,2.15
2019-06-07T15:12:31.216Z,2.05
2019-06-07T15:15:09.886Z,1.90
2019-06-07T15:17:44.086Z,1.98
2019-06-07T15:20:18.383Z,1.90
2019-06-07T15:22:52.563Z,1.87
2019-06-07T15:25:27.086Z,1.80
2019-06-07T15:28:01.566Z,1.65
2019-06-07T15:30:35.926Z,1.82
2019-06-07T15:33:10.092Z,1.85
2019-06-07T15:35:44.443Z,2.05
2019-06-07T15:38:18.622Z,2.17
2019-06-07T15:40:52.906Z,2.50
2019-06-07T15:43:27.218Z,2.17
2019-06-07T15:46:01.580Z,1.77
2019-06-07T15:48:36.128Z,2.20
2019-06-07T15:51:10.501Z,2.42
2019-06-07T15:53:45.008Z,2.10
2019-06-07T15:56:19.371Z,2.35
2019-06-07T15:58:53.994Z,2.62
2019-06-07T16:01:28.346Z,2.30
2019-06-07T16:04:02.933Z,2.22
2019-06-07T16:06:38.305Z,2.10
2019-06-07T16:09:12.726Z,1.77
2019-06-07T16:11:47.011Z,2.10
2019-06-07T16:14:21.302Z,1.95
2019-06-07T16:16:55.534Z,2.27
2019-06-07T16:19:29.890Z,2.00
2019-06-07T16:22:07.736Z,2.52
2019-06-07T16:24:42.274Z,2.35
2019-06-07T16:27:16.622Z,2.15
2019-06-07T16:29:50.938Z,2.80
2019-06-07T16:32:25.294Z,2.90
2019-06-07T16:34:59.514Z,2.40
2019-06-07T16:37:33.838Z,2.60
2019-06-07T16:40:09.798Z,2.70
2019-06-07T16:42:45.090Z,2.60
2019-06-07T16:45:20.283Z,2.95
2019-06-07T16:51:02.974Z,2.35
2019-06-07T16:53:38.184Z,2.75
2019-06-07T16:56:12.626Z,2.87
2019-06-07T16:58:48.559Z,2.67
2019-06-07T17:01:22.958Z,3.00
2019-06-07T17:03:57.322Z,3.05
2019-06-07T17:06:31.626Z,3.25
2019-06-07T17:09:07.699Z,2.92
2019-06-07T17:11:42.331Z,2.70
2019-06-07T17:14:16.789Z,2.98
2019-06-07T17:16:51.042Z,3.25
2019-06-07T17:19:25.363Z,3.15
2019-06-07T17:21:59.694Z,3.22
2019-06-07T17:24:34.005Z,1.90
2019-06-07T17:27:08.278Z,1.47
2019-06-07T17:29:43.666Z,1.30
2019-06-07T17:32:18.090Z,1.40
2019-06-07T17:34:52.442Z,1.82
2019-06-07T17:37:27.226Z,2.90
2019-06-07T17:40:01.507Z,2.00
2019-06-07T17:42:35.953Z,1.80
2019-06-07T17:45:11.241Z,1.40
2019-06-07T17:47:45.991Z,1.30
2019-06-07T17:50:20.562Z,1.32
2019-06-07T17:52:54.826Z,1.47
2019-06-07T17:55:29.486Z,1.60
2019-06-07T17:58:03.773Z,1.50
2019-06-07T18:00:53.300Z,1.42
2019-06-07T18:03:27.681Z,1.30
2019-06-07T18:06:03.489Z,1.65
2019-06-07T18:08:37.893Z,1.55
2019-06-07T18:11:12.213Z,1.60
2019-06-07T18:13:46.563Z,1.50
2019-06-07T18:16:20.854Z,1.42
2019-06-07T18:18:55.121Z,1.52
2019-06-07T18:21:29.434Z,1.60
2019-06-07T18:24:03.725Z,1.40
2019-06-07T18:26:37.973Z,1.60
2019-06-07T18:29:12.326Z,1.32
2019-06-07T18:31:46.765Z,1.65
2019-06-07T18:34:21.057Z,1.30
2019-06-07T18:36:55.781Z,1.50
2019-06-07T18:39:30.032Z,1.70
2019-06-07T18:42:04.377Z,1.35
2019-06-07T18:44:38.601Z,1.50
2019-06-07T18:47:12.781Z,1.45
2019-06-07T18:49:47.485Z,1.62
2019-06-07T18:52:23.527Z,1.52
2019-06-07T18:54:59.572Z,1.80
2019-06-07T18:57:33.729Z,1.30
2019-06-07T19:00:11.222Z,2.20
2019-06-07T19:02:45.842Z,1.80
2019-06-07T19:05:20.394Z,1.52
2019-06-07T19:07:54.998Z,1.80
2019-06-07T19:10:29.365Z,1.77
2019-06-07T19:13:03.693Z,1.72
2019-06-07T19:15:38.068Z,1.70
2019-06-07T19:18:12.372Z,1.65
2019-06-07T19:20:46.697Z,1.67
2019-06-07T19:23:21.043Z,1.50
2019-06-07T19:26:03.597Z,1.80
2019-06-07T19:28:37.857Z,1.90
2019-06-07T19:31:12.209Z,1.90
2019-06-07T19:33:49.374Z,2.08
2019-06-07T19:36:22.556Z,2.15
2019-06-07T19:38:57.851Z,2.35
2019-06-07T19:41:32.365Z,2.15
2019-06-07T19:44:06.653Z,2.60
2019-06-07T19:46:40.933Z,2.42
2019-06-07T19:49:15.221Z,2.25
2019-06-07T19:51:49.419Z,2.60
2019-06-07T19:54:24.209Z,2.60
2019-06-07T19:59:55.442Z,2.87
2019-06-07T20:02:29.905Z,2.85
2019-06-07T20:05:08.897Z,3.02
2019-06-07T20:07:43.217Z,3.15
2019-06-07T20:10:17.985Z,3.05
2019-06-07T20:12:54.515Z,2.72
2019-06-07T20:15:29.771Z,3.50
2019-06-07T20:18:05.583Z,3.02
2019-06-07T20:20:40.169Z,78.85
2019-06-07T20:23:21.542Z,119.47
2019-06-07T20:25:55.953Z,22.93
2019-06-07T20:28:30.263Z,38.00
2019-06-07T20:31:06.088Z,7.45
2019-06-07T20:33:40.573Z,4.97
2019-06-07T20:36:14.949Z,4.70
2019-06-07T20:38:49.205Z,4.22
2019-06-07T20:41:23.505Z,3.72
2019-06-07T20:43:58.033Z,5.08
2019-06-07T20:46:32.338Z,6.12
2019-06-07T20:49:06.634Z,4.30
2019-06-07T20:51:41.016Z,6.05
2019-06-07T20:54:15.300Z,5.30
2019-06-07T20:56:49.653Z,4.00
2019-06-07T20:59:24.025Z,5.55
2019-06-07T21:01:58.730Z,4.42
2019-06-07T21:04:33.141Z,3.90
2019-06-07T21:07:08.120Z,4.00
2019-06-07T21:09:43.073Z,6.67
2019-06-07T21:12:17.701Z,5.30
2019-06-07T21:14:52.049Z,5.92
2019-06-07T21:17:26.406Z,4.67
2019-06-07T21:20:00.636Z,4.30
2019-06-07T21:22:34.972Z,4.60
2019-06-07T21:25:11.513Z,4.65
2019-06-07T21:27:45.865Z,4.80
2019-06-07T21:30:19.449Z,4.67
2019-06-07T21:32:53.761Z,5.00
2019-06-07T21:35:28.125Z,5.00
2019-06-07T21:38:05.980Z,5.20
2019-06-07T21:40:40.421Z,4.85
2019-06-07T21:43:14.619Z,5.15
2019-06-07T21:46:01.554Z,5.50
2019-06-07T21:48:24.889Z,5.70
2019-06-07T21:50:59.173Z,5.40
2019-06-07T21:53:33.437Z,5.35
2019-06-07T21:56:07.110Z,4.95
2019-06-07T21:58:41.353Z,5.60
2019-06-07T22:01:19.029Z,5.12
2019-06-07T22:03:55.146Z,5.65
2019-06-07T22:06:29.494Z,4.75
2019-06-07T22:12:12.112Z,5.65
2019-06-07T22:14:49.565Z,5.75
2019-06-07T22:17:23.789Z,5.80
2019-06-07T22:19:58.116Z,5.90
2019-06-07T22:22:32.316Z,6.17
2019-06-07T22:25:09.013Z,6.08
2019-06-07T22:27:43.657Z,6.45
2019-06-07T22:30:18.765Z,5.72
2019-06-07T22:32:53.317Z,6.80
2019-06-07T22:35:27.472Z,7.37
2019-06-07T22:38:01.640Z,6.92
2019-06-07T22:40:35.926Z,7.12
2019-06-07T22:43:10.271Z,6.85
2019-06-07T22:45:44.604Z,7.12
2019-06-07T22:48:19.085Z,7.22
2019-06-07T22:50:53.369Z,6.92
2019-06-07T22:53:27.608Z,7.25
2019-06-07T22:56:03.607Z,7.78
2019-06-07T22:58:38.221Z,7.47
2019-06-07T23:01:24.365Z,7.62
2019-06-07T23:03:58.624Z,7.22
2019-06-07T23:06:32.893Z,7.72
2019-06-07T23:09:08.757Z,8.13
2019-06-07T23:11:43.181Z,8.43
2019-06-07T23:14:17.526Z,7.72
2019-06-07T23:16:55.899Z,8.00
2019-06-07T23:19:27.856Z,8.00
2019-06-07T23:22:02.205Z,7.83
2019-06-07T23:24:36.516Z,8.00
2019-06-07T23:27:11.467Z,8.00
2019-06-07T23:29:47.565Z,8.30
2019-06-07T23:32:21.898Z,7.42
2019-06-07T23:34:56.117Z,8.40
2019-06-07T23:37:30.465Z,8.35
2019-06-07T23:40:07.077Z,9.15
2019-06-07T23:42:41.304Z,8.45
2019-06-07T23:45:15.630Z,8.70
2019-06-07T23:47:49.861Z,8.90
2019-06-07T23:50:24.126Z,8.70
2019-06-07T23:52:58.517Z,9.48
2019-06-07T23:55:32.704Z,8.93
2019-06-07T23:58:06.926Z,9.00
